sensor_id;sensor_type;location;lat;lon;timestamp;P1;durP1;ratioP1;P2;durP2;ratioP2
8187;SDS011;4135;49.184;9.722;2022-08-19T00:00:23;26.48;;;18.73;;
8187;SDS011;4135;49.184;9.722;2022-08-19T00:02:53;23.33;;;17.38;;
8187;SDS011;4135;49.184;9.722;2022-08-19T00:05:23;31.90;;;20.50;;
8187;SDS011;4135;49.184;9.722;2022-08-19T00:07:52;28.80;;;19.80;;
8187;SDS011;4135;49.184;9.722;2022-08-19T00:10:22;26.05;;;18.50;;
8187;SDS011;4135;49.184;9.722;2022-08-19T00:12:53;26.27;;;18.30;;
8187;SDS011;4135;49.184;9.722;2022-08-19T00:15:23;26.30;;;18.08;;
8187;SDS011;4135;49.184;9.722;2022-08-19T00:17:52;23.35;;;17.38;;
8187;SDS011;4135;49.184;9.722;2022-08-19T00:20:23;28.42;;;17.45;;
8187;SDS011;4135;49.184;9.722;2022-08-19T00:22:53;26.85;;;18.42;;
8187;SDS011;4135;49.184;9.722;2022-08-19T00:25:23;24.23;;;18.10;;
8187;SDS011;4135;49.184;9.722;2022-08-19T00:27:52;24.38;;;17.02;;
8187;SDS011;4135;49.184;9.722;2022-08-19T00:30:22;27.80;;;18.65;;
8187;SDS011;4135;49.184;9.722;2022-08-19T00:32:51;24.38;;;17.98;;
8187;SDS011;4135;49.184;9.722;2022-08-19T00:35:23;20.23;;;15.93;;
8187;SDS011;4135;49.184;9.722;2022-08-19T00:37:52;21.52;;;15.55;;
8187;SDS011;4135;49.184;9.722;2022-08-19T00:40:23;24.98;;;16.48;;
8187;SDS011;4135;49.184;9.722;2022-08-19T00:42:53;22.02;;;17.15;;
8187;SDS011;4135;49.184;9.722;2022-08-19T00:45:24;20.55;;;16.55;;
8187;SDS011;4135;49.184;9.722;2022-08-19T00:47:55;20.63;;;15.27;;
8187;SDS011;4135;49.184;9.722;2022-08-19T00:50:24;21.33;;;15.98;;
8187;SDS011;4135;49.184;9.722;2022-08-19T00:52:54;23.77;;;16.50;;
8187;SDS011;4135;49.184;9.722;2022-08-19T00:55:25;20.63;;;15.30;;
8187;SDS011;4135;49.184;9.722;2022-08-19T00:58:07;20.13;;;14.57;;
8187;SDS011;4135;49.184;9.722;2022-08-19T01:00:41;20.55;;;16.00;;
8187;SDS011;4135;49.184;9.722;2022-08-19T01:03:11;19.45;;;14.45;;
8187;SDS011;4135;49.184;9.722;2022-08-19T01:05:43;19.45;;;14.88;;
8187;SDS011;4135;49.184;9.722;2022-08-19T01:08:15;20.25;;;15.07;;
8187;SDS011;4135;49.184;9.722;2022-08-19T01:10:54;22.77;;;15.35;;
8187;SDS011;4135;49.184;9.722;2022-08-19T01:13:26;18.38;;;14.80;;
8187;SDS011;4135;49.184;9.722;2022-08-19T01:16:00;20.08;;;14.02;;
8187;SDS011;4135;49.184;9.722;2022-08-19T01:18:36;19.10;;;15.00;;
8187;SDS011;4135;49.184;9.722;2022-08-19T01:21:24;21.42;;;15.50;;
8187;SDS011;4135;49.184;9.722;2022-08-19T01:23:58;26.90;;;15.93;;
8187;SDS011;4135;49.184;9.722;2022-08-19T01:26:28;20.50;;;15.77;;
8187;SDS011;4135;49.184;9.722;2022-08-19T01:28:58;23.15;;;16.25;;
8187;SDS011;4135;49.184;9.722;2022-08-19T01:31:29;22.83;;;16.33;;
8187;SDS011;4135;49.184;9.722;2022-08-19T01:33:59;23.17;;;16.63;;
8187;SDS011;4135;49.184;9.722;2022-08-19T01:36:32;26.42;;;17.67;;
8187;SDS011;4135;49.184;9.722;2022-08-19T01:39:06;22.58;;;16.77;;
8187;SDS011;4135;49.184;9.722;2022-08-19T01:41:38;26.27;;;17.60;;
8187;SDS011;4135;49.184;9.722;2022-08-19T01:44:08;22.58;;;17.15;;
8187;SDS011;4135;49.184;9.722;2022-08-19T01:46:39;26.85;;;17.60;;
8187;SDS011;4135;49.184;9.722;2022-08-19T01:49:09;25.20;;;18.73;;
8187;SDS011;4135;49.184;9.722;2022-08-19T01:51:39;29.00;;;18.77;;
8187;SDS011;4135;49.184;9.722;2022-08-19T01:54:09;24.48;;;17.30;;
8187;SDS011;4135;49.184;9.722;2022-08-19T01:56:40;22.98;;;16.98;;
8187;SDS011;4135;49.184;9.722;2022-08-19T01:59:11;23.05;;;16.90;;
8187;SDS011;4135;49.184;9.722;2022-08-19T02:01:43;25.58;;;16.60;;
8187;SDS011;4135;49.184;9.722;2022-08-19T02:04:12;24.67;;;16.90;;
8187;SDS011;4135;49.184;9.722;2022-08-19T02:06:43;23.13;;;17.20;;
8187;SDS011;4135;49.184;9.722;2022-08-19T02:09:13;22.67;;;16.17;;
8187;SDS011;4135;49.184;9.722;2022-08-19T02:11:42;22.20;;;16.20;;
8187;SDS011;4135;49.184;9.722;2022-08-19T02:14:12;24.40;;;17.17;;
8187;SDS011;4135;49.184;9.722;2022-08-19T02:16:42;22.90;;;16.60;;
8187;SDS011;4135;49.184;9.722;2022-08-19T02:19:12;20.77;;;15.32;;
8187;SDS011;4135;49.184;9.722;2022-08-19T02:21:41;22.90;;;16.13;;
8187;SDS011;4135;49.184;9.722;2022-08-19T02:24:12;24.27;;;16.77;;
8187;SDS011;4135;49.184;9.722;2022-08-19T02:26:41;21.75;;;15.35;;
8187;SDS011;4135;49.184;9.722;2022-08-19T02:29:11;24.23;;;16.50;;
8187;SDS011;4135;49.184;9.722;2022-08-19T02:31:40;18.25;;;14.70;;
8187;SDS011;4135;49.184;9.722;2022-08-19T02:34:10;21.73;;;16.02;;
8187;SDS011;4135;49.184;9.722;2022-08-19T02:36:40;21.58;;;15.15;;
8187;SDS011;4135;49.184;9.722;2022-08-19T02:39:09;21.15;;;15.55;;
8187;SDS011;4135;49.184;9.722;2022-08-19T02:41:39;23.38;;;16.58;;
8187;SDS011;4135;49.184;9.722;2022-08-19T02:44:09;24.60;;;16.45;;
8187;SDS011;4135;49.184;9.722;2022-08-19T02:46:39;25.00;;;16.20;;
8187;SDS011;4135;49.184;9.722;2022-08-19T02:49:08;24.65;;;15.98;;
8187;SDS011;4135;49.184;9.722;2022-08-19T02:51:40;23.55;;;16.88;;
8187;SDS011;4135;49.184;9.722;2022-08-19T02:54:11;23.13;;;17.17;;
8187;SDS011;4135;49.184;9.722;2022-08-19T02:56:42;23.25;;;15.70;;
8187;SDS011;4135;49.184;9.722;2022-08-19T02:59:13;24.02;;;15.88;;
8187;SDS011;4135;49.184;9.722;2022-08-19T03:01:42;23.42;;;17.02;;
8187;SDS011;4135;49.184;9.722;2022-08-19T03:04:13;21.38;;;16.17;;
8187;SDS011;4135;49.184;9.722;2022-08-19T03:06:45;23.40;;;17.08;;
8187;SDS011;4135;49.184;9.722;2022-08-19T03:09:16;21.00;;;15.80;;
8187;SDS011;4135;49.184;9.722;2022-08-19T03:11:47;22.80;;;16.08;;
8187;SDS011;4135;49.184;9.722;2022-08-19T03:14:16;24.60;;;17.52;;
8187;SDS011;4135;49.184;9.722;2022-08-19T03:16:47;22.13;;;16.63;;
8187;SDS011;4135;49.184;9.722;2022-08-19T03:19:19;20.85;;;17.33;;
8187;SDS011;4135;49.184;9.722;2022-08-19T03:21:52;26.38;;;17.52;;
8187;SDS011;4135;49.184;9.722;2022-08-19T03:24:22;22.30;;;16.42;;
8187;SDS011;4135;49.184;9.722;2022-08-19T03:26:54;21.95;;;15.63;;
8187;SDS011;4135;49.184;9.722;2022-08-19T03:29:28;22.17;;;16.10;;
8187;SDS011;4135;49.184;9.722;2022-08-19T03:32:02;23.73;;;16.63;;
8187;SDS011;4135;49.184;9.722;2022-08-19T03:34:34;24.75;;;15.98;;
8187;SDS011;4135;49.184;9.722;2022-08-19T03:37:07;21.13;;;16.23;;
8187;SDS011;4135;49.184;9.722;2022-08-19T03:39:38;25.33;;;17.65;;
8187;SDS011;4135;49.184;9.722;2022-08-19T03:42:09;24.23;;;16.63;;
8187;SDS011;4135;49.184;9.722;2022-08-19T03:44:39;24.70;;;17.58;;
8187;SDS011;4135;49.184;9.722;2022-08-19T03:47:08;22.48;;;16.38;;
8187;SDS011;4135;49.184;9.722;2022-08-19T03:49:38;21.20;;;17.00;;
8187;SDS011;4135;49.184;9.722;2022-08-19T03:52:08;21.45;;;15.68;;
8187;SDS011;4135;49.184;9.722;2022-08-19T03:54:37;25.08;;;15.70;;
8187;SDS011;4135;49.184;9.722;2022-08-19T03:57:07;25.00;;;17.33;;
8187;SDS011;4135;49.184;9.722;2022-08-19T03:59:38;24.48;;;17.35;;
8187;SDS011;4135;49.184;9.722;2022-08-19T04:02:10;22.67;;;16.45;;
8187;SDS011;4135;49.184;9.722;2022-08-19T04:04:41;22.83;;;17.52;;
8187;SDS011;4135;49.184;9.722;2022-08-19T04:07:13;23.23;;;16.73;;
8187;SDS011;4135;49.184;9.722;2022-08-19T04:09:50;28.17;;;17.75;;
8187;SDS011;4135;49.184;9.722;2022-08-19T04:12:20;27.23;;;18.95;;
8187;SDS011;4135;49.184;9.722;2022-08-19T04:14:50;26.98;;;17.00;;
8187;SDS011;4135;49.184;9.722;2022-08-19T04:17:20;21.35;;;15.20;;
8187;SDS011;4135;49.184;9.722;2022-08-19T04:19:51;21.17;;;16.05;;
8187;SDS011;4135;49.184;9.722;2022-08-19T04:22:20;26.60;;;18.95;;
8187;SDS011;4135;49.184;9.722;2022-08-19T04:24:50;23.20;;;17.25;;
8187;SDS011;4135;49.184;9.722;2022-08-19T04:27:19;25.17;;;18.42;;
8187;SDS011;4135;49.184;9.722;2022-08-19T04:29:49;27.73;;;18.00;;
8187;SDS011;4135;49.184;9.722;2022-08-19T04:32:18;26.15;;;18.00;;
8187;SDS011;4135;49.184;9.722;2022-08-19T04:34:48;27.63;;;18.38;;
8187;SDS011;4135;49.184;9.722;2022-08-19T04:37:17;24.73;;;17.85;;
8187;SDS011;4135;49.184;9.722;2022-08-19T04:39:47;26.05;;;17.63;;
8187;SDS011;4135;49.184;9.722;2022-08-19T04:42:35;24.67;;;16.95;;
8187;SDS011;4135;49.184;9.722;2022-08-19T04:45:08;27.33;;;18.80;;
8187;SDS011;4135;49.184;9.722;2022-08-19T04:47:42;21.45;;;17.10;;
8187;SDS011;4135;49.184;9.722;2022-08-19T04:50:13;25.75;;;17.73;;
8187;SDS011;4135;49.184;9.722;2022-08-19T04:52:43;22.42;;;16.33;;
8187;SDS011;4135;49.184;9.722;2022-08-19T04:55:12;25.38;;;18.15;;
8187;SDS011;4135;49.184;9.722;2022-08-19T04:57:43;24.70;;;18.17;;
8187;SDS011;4135;49.184;9.722;2022-08-19T05:00:12;26.90;;;18.77;;
8187;SDS011;4135;49.184;9.722;2022-08-19T05:02:42;27.05;;;18.65;;
8187;SDS011;4135;49.184;9.722;2022-08-19T05:05:12;25.73;;;16.92;;
8187;SDS011;4135;49.184;9.722;2022-08-19T05:07:42;31.50;;;19.52;;
8187;SDS011;4135;49.184;9.722;2022-08-19T05:10:12;26.25;;;17.75;;
8187;SDS011;4135;49.184;9.722;2022-08-19T05:12:41;25.25;;;19.65;;
8187;SDS011;4135;49.184;9.722;2022-08-19T05:15:11;28.23;;;19.05;;
8187;SDS011;4135;49.184;9.722;2022-08-19T05:17:40;23.67;;;18.33;;
8187;SDS011;4135;49.184;9.722;2022-08-19T05:20:30;32.53;;;18.70;;
8187;SDS011;4135;49.184;9.722;2022-08-19T05:23:18;27.48;;;19.33;;
8187;SDS011;4135;49.184;9.722;2022-08-19T05:25:47;26.90;;;20.13;;
8187;SDS011;4135;49.184;9.722;2022-08-19T05:28:19;26.33;;;20.02;;
8187;SDS011;4135;49.184;9.722;2022-08-19T05:30:55;24.58;;;17.85;;
8187;SDS011;4135;49.184;9.722;2022-08-19T05:33:24;26.00;;;18.48;;
8187;SDS011;4135;49.184;9.722;2022-08-19T05:35:54;26.50;;;19.05;;
8187;SDS011;4135;49.184;9.722;2022-08-19T05:38:24;24.42;;;18.27;;
8187;SDS011;4135;49.184;9.722;2022-08-19T05:40:56;25.88;;;18.08;;
8187;SDS011;4135;49.184;9.722;2022-08-19T05:43:25;22.23;;;16.98;;
8187;SDS011;4135;49.184;9.722;2022-08-19T05:45:55;30.45;;;18.65;;
8187;SDS011;4135;49.184;9.722;2022-08-19T05:48:24;25.63;;;18.80;;
8187;SDS011;4135;49.184;9.722;2022-08-19T05:50:55;30.63;;;18.33;;
8187;SDS011;4135;49.184;9.722;2022-08-19T05:53:25;28.15;;;19.98;;
8187;SDS011;4135;49.184;9.722;2022-08-19T05:55:55;31.25;;;20.00;;
8187;SDS011;4135;49.184;9.722;2022-08-19T05:58:24;28.60;;;21.13;;
8187;SDS011;4135;49.184;9.722;2022-08-19T06:00:55;27.02;;;20.92;;
8187;SDS011;4135;49.184;9.722;2022-08-19T06:03:24;29.17;;;20.35;;
8187;SDS011;4135;49.184;9.722;2022-08-19T06:05:54;29.60;;;20.45;;
8187;SDS011;4135;49.184;9.722;2022-08-19T06:08:23;30.40;;;19.45;;
8187;SDS011;4135;49.184;9.722;2022-08-19T06:10:54;29.83;;;19.33;;
8187;SDS011;4135;49.184;9.722;2022-08-19T06:13:24;33.85;;;21.55;;
8187;SDS011;4135;49.184;9.722;2022-08-19T06:15:54;28.85;;;20.25;;
8187;SDS011;4135;49.184;9.722;2022-08-19T06:18:24;30.00;;;22.23;;
8187;SDS011;4135;49.184;9.722;2022-08-19T06:20:53;30.98;;;20.05;;
8187;SDS011;4135;49.184;9.722;2022-08-19T06:23:23;31.08;;;21.13;;
8187;SDS011;4135;49.184;9.722;2022-08-19T06:25:52;30.35;;;21.60;;
8187;SDS011;4135;49.184;9.722;2022-08-19T06:28:22;28.02;;;20.10;;
8187;SDS011;4135;49.184;9.722;2022-08-19T06:30:52;29.88;;;19.77;;
8187;SDS011;4135;49.184;9.722;2022-08-19T06:33:22;29.52;;;20.70;;
8187;SDS011;4135;49.184;9.722;2022-08-19T06:35:51;31.98;;;20.80;;
8187;SDS011;4135;49.184;9.722;2022-08-19T06:38:21;30.67;;;20.30;;
8187;SDS011;4135;49.184;9.722;2022-08-19T06:40:51;31.23;;;20.80;;
8187;SDS011;4135;49.184;9.722;2022-08-19T06:43:29;32.58;;;21.58;;
8187;SDS011;4135;49.184;9.722;2022-08-19T06:45:59;28.17;;;20.75;;
8187;SDS011;4135;49.184;9.722;2022-08-19T06:48:30;34.17;;;22.42;;
8187;SDS011;4135;49.184;9.722;2022-08-19T06:51:00;31.70;;;20.90;;
8187;SDS011;4135;49.184;9.722;2022-08-19T06:53:34;32.95;;;20.52;;
8187;SDS011;4135;49.184;9.722;2022-08-19T06:56:04;27.70;;;19.98;;
8187;SDS011;4135;49.184;9.722;2022-08-19T06:58:33;29.08;;;21.92;;
8187;SDS011;4135;49.184;9.722;2022-08-19T07:01:03;38.10;;;25.35;;
8187;SDS011;4135;49.184;9.722;2022-08-19T07:03:34;32.75;;;22.95;;
8187;SDS011;4135;49.184;9.722;2022-08-19T07:06:05;36.20;;;24.80;;
8187;SDS011;4135;49.184;9.722;2022-08-19T07:08:37;30.65;;;22.00;;
8187;SDS011;4135;49.184;9.722;2022-08-19T07:11:10;34.58;;;22.00;;
8187;SDS011;4135;49.184;9.722;2022-08-19T07:13:41;33.65;;;21.85;;
8187;SDS011;4135;49.184;9.722;2022-08-19T07:16:13;30.98;;;21.00;;
8187;SDS011;4135;49.184;9.722;2022-08-19T07:18:46;30.15;;;19.25;;
8187;SDS011;4135;49.184;9.722;2022-08-19T07:21:21;37.13;;;20.55;;
8187;SDS011;4135;49.184;9.722;2022-08-19T07:23:53;30.27;;;20.60;;
8187;SDS011;4135;49.184;9.722;2022-08-19T07:26:29;27.42;;;19.90;;
8187;SDS011;4135;49.184;9.722;2022-08-19T07:29:01;27.27;;;20.13;;
8187;SDS011;4135;49.184;9.722;2022-08-19T07:31:30;28.52;;;20.08;;
8187;SDS011;4135;49.184;9.722;2022-08-19T07:34:06;29.50;;;18.98;;
8187;SDS011;4135;49.184;9.722;2022-08-19T07:36:38;31.67;;;21.05;;
8187;SDS011;4135;49.184;9.722;2022-08-19T07:39:11;31.35;;;21.75;;
8187;SDS011;4135;49.184;9.722;2022-08-19T07:41:44;32.05;;;20.98;;
8187;SDS011;4135;49.184;9.722;2022-08-19T07:44:14;29.67;;;20.30;;
8187;SDS011;4135;49.184;9.722;2022-08-19T07:46:45;29.20;;;19.45;;
8187;SDS011;4135;49.184;9.722;2022-08-19T07:49:17;30.77;;;20.33;;
8187;SDS011;4135;49.184;9.722;2022-08-19T07:51:50;28.95;;;21.00;;
8187;SDS011;4135;49.184;9.722;2022-08-19T07:54:20;27.08;;;20.13;;
8187;SDS011;4135;49.184;9.722;2022-08-19T07:56:51;36.50;;;21.55;;
8187;SDS011;4135;49.184;9.722;2022-08-19T07:59:21;33.97;;;20.65;;
8187;SDS011;4135;49.184;9.722;2022-08-19T08:01:52;30.02;;;20.45;;
8187;SDS011;4135;49.184;9.722;2022-08-19T08:04:22;30.45;;;21.25;;
8187;SDS011;4135;49.184;9.722;2022-08-19T08:07:10;31.58;;;21.27;;
8187;SDS011;4135;49.184;9.722;2022-08-19T08:09:59;34.35;;;19.40;;
8187;SDS011;4135;49.184;9.722;2022-08-19T08:12:38;34.22;;;21.17;;
8187;SDS011;4135;49.184;9.722;2022-08-19T08:15:15;32.95;;;21.35;;
8187;SDS011;4135;49.184;9.722;2022-08-19T08:17:45;29.00;;;19.63;;
8187;SDS011;4135;49.184;9.722;2022-08-19T08:20:15;28.15;;;20.23;;
8187;SDS011;4135;49.184;9.722;2022-08-19T08:22:45;30.30;;;21.05;;
8187;SDS011;4135;49.184;9.722;2022-08-19T08:25:35;35.25;;;21.75;;
8187;SDS011;4135;49.184;9.722;2022-08-19T08:28:06;30.50;;;19.58;;
8187;SDS011;4135;49.184;9.722;2022-08-19T08:30:37;29.40;;;18.00;;
8187;SDS011;4135;49.184;9.722;2022-08-19T08:33:10;26.90;;;18.50;;
8187;SDS011;4135;49.184;9.722;2022-08-19T08:35:40;28.38;;;19.48;;
8187;SDS011;4135;49.184;9.722;2022-08-19T08:38:14;34.55;;;19.60;;
8187;SDS011;4135;49.184;9.722;2022-08-19T08:40:45;30.20;;;18.45;;
8187;SDS011;4135;49.184;9.722;2022-08-19T08:43:38;35.25;;;19.40;;
8187;SDS011;4135;49.184;9.722;2022-08-19T08:46:16;28.92;;;17.88;;
8187;SDS011;4135;49.184;9.722;2022-08-19T08:49:02;25.13;;;17.52;;
8187;SDS011;4135;49.184;9.722;2022-08-19T08:51:42;27.98;;;18.02;;
8187;SDS011;4135;49.184;9.722;2022-08-19T08:54:18;25.30;;;18.27;;
8187;SDS011;4135;49.184;9.722;2022-08-19T08:56:49;23.80;;;18.23;;
8187;SDS011;4135;49.184;9.722;2022-08-19T08:59:26;29.13;;;19.00;;
8187;SDS011;4135;49.184;9.722;2022-08-19T09:02:01;24.90;;;18.13;;
8187;SDS011;4135;49.184;9.722;2022-08-19T09:04:30;31.65;;;18.40;;
8187;SDS011;4135;49.184;9.722;2022-08-19T09:09:46;24.98;;;18.42;;
8187;SDS011;4135;49.184;9.722;2022-08-19T09:15:15;28.67;;;19.10;;
8187;SDS011;4135;49.184;9.722;2022-08-19T09:17:47;31.45;;;20.48;;
8187;SDS011;4135;49.184;9.722;2022-08-19T09:20:20;30.63;;;18.48;;
8187;SDS011;4135;49.184;9.722;2022-08-19T09:22:51;30.55;;;19.05;;
8187;SDS011;4135;49.184;9.722;2022-08-19T09:25:22;26.83;;;17.08;;
8187;SDS011;4135;49.184;9.722;2022-08-19T09:27:52;35.58;;;18.05;;
8187;SDS011;4135;49.184;9.722;2022-08-19T09:30:24;25.85;;;16.83;;
8187;SDS011;4135;49.184;9.722;2022-08-19T09:32:55;27.13;;;16.90;;
8187;SDS011;4135;49.184;9.722;2022-08-19T09:35:26;19.15;;;14.88;;
8187;SDS011;4135;49.184;9.722;2022-08-19T09:37:57;21.27;;;16.15;;
8187;SDS011;4135;49.184;9.722;2022-08-19T09:40:28;31.70;;;16.95;;
8187;SDS011;4135;49.184;9.722;2022-08-19T09:42:59;28.90;;;18.25;;
8187;SDS011;4135;49.184;9.722;2022-08-19T09:45:31;26.30;;;16.77;;
8187;SDS011;4135;49.184;9.722;2022-08-19T09:48:01;28.80;;;18.10;;
8187;SDS011;4135;49.184;9.722;2022-08-19T09:50:31;20.52;;;15.15;;
8187;SDS011;4135;49.184;9.722;2022-08-19T09:53:02;23.50;;;16.02;;
8187;SDS011;4135;49.184;9.722;2022-08-19T09:55:32;22.02;;;16.50;;
8187;SDS011;4135;49.184;9.722;2022-08-19T09:58:01;22.58;;;16.83;;
8187;SDS011;4135;49.184;9.722;2022-08-19T10:00:31;22.85;;;16.33;;
8187;SDS011;4135;49.184;9.722;2022-08-19T10:03:01;24.77;;;16.27;;
8187;SDS011;4135;49.184;9.722;2022-08-19T10:05:30;21.60;;;15.48;;
8187;SDS011;4135;49.184;9.722;2022-08-19T10:08:20;23.52;;;16.15;;
8187;SDS011;4135;49.184;9.722;2022-08-19T10:11:08;22.67;;;14.98;;
8187;SDS011;4135;49.184;9.722;2022-08-19T10:13:38;22.77;;;16.08;;
8187;SDS011;4135;49.184;9.722;2022-08-19T10:16:09;26.15;;;15.05;;
8187;SDS011;4135;49.184;9.722;2022-08-19T10:18:41;22.90;;;16.17;;
8187;SDS011;4135;49.184;9.722;2022-08-19T10:21:17;23.30;;;15.48;;
8187;SDS011;4135;49.184;9.722;2022-08-19T10:23:52;21.98;;;16.73;;
8187;SDS011;4135;49.184;9.722;2022-08-19T10:26:24;23.02;;;15.18;;
8187;SDS011;4135;49.184;9.722;2022-08-19T10:28:56;21.30;;;15.15;;
8187;SDS011;4135;49.184;9.722;2022-08-19T10:31:27;20.60;;;14.63;;
8187;SDS011;4135;49.184;9.722;2022-08-19T10:33:59;21.92;;;15.07;;
8187;SDS011;4135;49.184;9.722;2022-08-19T10:36:34;24.15;;;15.27;;
8187;SDS011;4135;49.184;9.722;2022-08-19T10:39:06;22.67;;;14.95;;
8187;SDS011;4135;49.184;9.722;2022-08-19T10:41:37;23.08;;;15.40;;
8187;SDS011;4135;49.184;9.722;2022-08-19T10:44:08;20.75;;;15.13;;
8187;SDS011;4135;49.184;9.722;2022-08-19T10:46:40;22.30;;;15.13;;
8187;SDS011;4135;49.184;9.722;2022-08-19T10:49:11;22.27;;;15.88;;
8187;SDS011;4135;49.184;9.722;2022-08-19T10:51:41;24.27;;;16.85;;
8187;SDS011;4135;49.184;9.722;2022-08-19T10:54:30;22.65;;;16.52;;
8187;SDS011;4135;49.184;9.722;2022-08-19T10:57:20;24.05;;;16.58;;
8187;SDS011;4135;49.184;9.722;2022-08-19T10:59:53;22.80;;;16.25;;
8187;SDS011;4135;49.184;9.722;2022-08-19T11:02:22;22.50;;;16.60;;
8187;SDS011;4135;49.184;9.722;2022-08-19T11:04:52;24.02;;;16.73;;
8187;SDS011;4135;49.184;9.722;2022-08-19T11:07:21;32.63;;;22.15;;
8187;SDS011;4135;49.184;9.722;2022-08-19T11:09:54;40.30;;;24.20;;
8187;SDS011;4135;49.184;9.722;2022-08-19T11:12:23;37.13;;;25.90;;
8187;SDS011;4135;49.184;9.722;2022-08-19T11:14:53;52.67;;;27.58;;
8187;SDS011;4135;49.184;9.722;2022-08-19T11:17:23;42.38;;;25.17;;
8187;SDS011;4135;49.184;9.722;2022-08-19T11:19:52;49.10;;;28.60;;
8187;SDS011;4135;49.184;9.722;2022-08-19T11:22:22;45.97;;;28.13;;
8187;SDS011;4135;49.184;9.722;2022-08-19T11:24:51;50.13;;;26.85;;
8187;SDS011;4135;49.184;9.722;2022-08-19T11:27:21;38.45;;;25.92;;
8187;SDS011;4135;49.184;9.722;2022-08-19T11:29:50;37.90;;;24.60;;
8187;SDS011;4135;49.184;9.722;2022-08-19T11:32:27;41.78;;;23.98;;
8187;SDS011;4135;49.184;9.722;2022-08-19T11:34:57;31.88;;;21.15;;
8187;SDS011;4135;49.184;9.722;2022-08-19T11:37:26;35.80;;;22.52;;
8187;SDS011;4135;49.184;9.722;2022-08-19T11:39:56;26.48;;;19.95;;
8187;SDS011;4135;49.184;9.722;2022-08-19T11:42:25;31.13;;;20.15;;
8187;SDS011;4135;49.184;9.722;2022-08-19T11:45:13;26.20;;;17.70;;
8187;SDS011;4135;49.184;9.722;2022-08-19T11:47:43;24.90;;;15.68;;
8187;SDS011;4135;49.184;9.722;2022-08-19T11:50:13;24.23;;;16.48;;
8187;SDS011;4135;49.184;9.722;2022-08-19T11:52:44;26.33;;;15.32;;
8187;SDS011;4135;49.184;9.722;2022-08-19T11:55:15;20.25;;;14.10;;
8187;SDS011;4135;49.184;9.722;2022-08-19T11:57:44;18.30;;;14.35;;
8187;SDS011;4135;49.184;9.722;2022-08-19T12:00:17;21.13;;;13.77;;
8187;SDS011;4135;49.184;9.722;2022-08-19T12:02:47;17.70;;;12.38;;
8187;SDS011;4135;49.184;9.722;2022-08-19T12:05:16;23.38;;;13.20;;
8187;SDS011;4135;49.184;9.722;2022-08-19T12:07:46;17.65;;;12.65;;
8187;SDS011;4135;49.184;9.722;2022-08-19T12:10:15;17.85;;;10.93;;
8187;SDS011;4135;49.184;9.722;2022-08-19T12:12:45;12.95;;;10.20;;
8187;SDS011;4135;49.184;9.722;2022-08-19T12:15:15;13.23;;;9.93;;
8187;SDS011;4135;49.184;9.722;2022-08-19T12:17:45;19.15;;;10.35;;
8187;SDS011;4135;49.184;9.722;2022-08-19T12:20:14;12.77;;;8.57;;
8187;SDS011;4135;49.184;9.722;2022-08-19T12:22:45;12.95;;;8.40;;
8187;SDS011;4135;49.184;9.722;2022-08-19T12:25:15;12.40;;;8.40;;
8187;SDS011;4135;49.184;9.722;2022-08-19T12:27:45;9.15;;;7.05;;
8187;SDS011;4135;49.184;9.722;2022-08-19T12:30:15;11.65;;;8.45;;
8187;SDS011;4135;49.184;9.722;2022-08-19T12:32:45;10.05;;;8.32;;
8187;SDS011;4135;49.184;9.722;2022-08-19T12:35:14;11.60;;;7.57;;
8187;SDS011;4135;49.184;9.722;2022-08-19T12:37:44;10.25;;;6.90;;
8187;SDS011;4135;49.184;9.722;2022-08-19T12:40:14;14.68;;;8.05;;
8187;SDS011;4135;49.184;9.722;2022-08-19T12:42:44;9.73;;;7.10;;
8187;SDS011;4135;49.184;9.722;2022-08-19T12:45:14;11.23;;;7.05;;
8187;SDS011;4135;49.184;9.722;2022-08-19T12:47:44;10.40;;;7.00;;
8187;SDS011;4135;49.184;9.722;2022-08-19T12:50:16;13.85;;;10.50;;
8187;SDS011;4135;49.184;9.722;2022-08-19T12:52:45;15.32;;;11.10;;
8187;SDS011;4135;49.184;9.722;2022-08-19T12:55:15;19.58;;;11.75;;
8187;SDS011;4135;49.184;9.722;2022-08-19T12:57:45;17.38;;;12.60;;
8187;SDS011;4135;49.184;9.722;2022-08-19T13:00:15;19.40;;;13.82;;
8187;SDS011;4135;49.184;9.722;2022-08-19T13:02:46;19.02;;;14.25;;
8187;SDS011;4135;49.184;9.722;2022-08-19T13:05:20;19.10;;;12.85;;
8187;SDS011;4135;49.184;9.722;2022-08-19T13:07:55;17.08;;;12.07;;
8187;SDS011;4135;49.184;9.722;2022-08-19T13:10:28;17.70;;;11.80;;
8187;SDS011;4135;49.184;9.722;2022-08-19T13:13:04;15.75;;;10.93;;
8187;SDS011;4135;49.184;9.722;2022-08-19T13:15:36;15.60;;;11.93;;
8187;SDS011;4135;49.184;9.722;2022-08-19T13:18:09;15.88;;;11.55;;
8187;SDS011;4135;49.184;9.722;2022-08-19T13:20:39;43.42;;;12.90;;
8187;SDS011;4135;49.184;9.722;2022-08-19T13:23:12;25.02;;;14.25;;
8187;SDS011;4135;49.184;9.722;2022-08-19T13:25:41;20.75;;;13.23;;
8187;SDS011;4135;49.184;9.722;2022-08-19T13:28:11;20.17;;;13.73;;
8187;SDS011;4135;49.184;9.722;2022-08-19T13:30:40;22.63;;;13.43;;
8187;SDS011;4135;49.184;9.722;2022-08-19T13:33:28;21.90;;;12.00;;
8187;SDS011;4135;49.184;9.722;2022-08-19T13:35:59;30.20;;;12.95;;
8187;SDS011;4135;49.184;9.722;2022-08-19T13:38:29;15.85;;;11.43;;
8187;SDS011;4135;49.184;9.722;2022-08-19T13:41:03;22.48;;;12.45;;
8187;SDS011;4135;49.184;9.722;2022-08-19T13:43:34;20.77;;;13.48;;
8187;SDS011;4135;49.184;9.722;2022-08-19T13:46:07;21.92;;;12.30;;
8187;SDS011;4135;49.184;9.722;2022-08-19T13:48:38;19.63;;;12.40;;
8187;SDS011;4135;49.184;9.722;2022-08-19T13:51:09;17.63;;;11.50;;
8187;SDS011;4135;49.184;9.722;2022-08-19T13:53:39;18.65;;;12.35;;
8187;SDS011;4135;49.184;9.722;2022-08-19T13:56:12;19.10;;;11.90;;
8187;SDS011;4135;49.184;9.722;2022-08-19T13:58:44;15.88;;;10.90;;
8187;SDS011;4135;49.184;9.722;2022-08-19T14:01:18;20.10;;;12.70;;
8187;SDS011;4135;49.184;9.722;2022-08-19T14:03:49;19.33;;;12.23;;
8187;SDS011;4135;49.184;9.722;2022-08-19T14:06:19;23.15;;;12.38;;
8187;SDS011;4135;49.184;9.722;2022-08-19T14:08:50;15.68;;;10.98;;
8187;SDS011;4135;49.184;9.722;2022-08-19T14:11:20;14.65;;;9.93;;
8187;SDS011;4135;49.184;9.722;2022-08-19T14:13:51;15.40;;;10.52;;
8187;SDS011;4135;49.184;9.722;2022-08-19T14:16:21;15.32;;;10.77;;
8187;SDS011;4135;49.184;9.722;2022-08-19T14:18:50;15.23;;;10.40;;
8187;SDS011;4135;49.184;9.722;2022-08-19T14:21:21;12.65;;;9.95;;
8187;SDS011;4135;49.184;9.722;2022-08-19T14:23:52;14.75;;;11.00;;
8187;SDS011;4135;49.184;9.722;2022-08-19T14:26:22;20.33;;;13.00;;
8187;SDS011;4135;49.184;9.722;2022-08-19T14:28:51;20.42;;;11.85;;
8187;SDS011;4135;49.184;9.722;2022-08-19T14:31:21;15.40;;;10.57;;
8187;SDS011;4135;49.184;9.722;2022-08-19T14:33:52;14.85;;;10.50;;
8187;SDS011;4135;49.184;9.722;2022-08-19T14:36:22;16.83;;;10.77;;
8187;SDS011;4135;49.184;9.722;2022-08-19T14:38:52;15.02;;;11.13;;
8187;SDS011;4135;49.184;9.722;2022-08-19T14:41:22;14.93;;;10.13;;
8187;SDS011;4135;49.184;9.722;2022-08-19T14:43:52;14.65;;;9.82;;
8187;SDS011;4135;49.184;9.722;2022-08-19T14:46:24;13.18;;;8.57;;
8187;SDS011;4135;49.184;9.722;2022-08-19T14:48:55;12.38;;;8.48;;
8187;SDS011;4135;49.184;9.722;2022-08-19T14:51:25;12.38;;;8.93;;
8187;SDS011;4135;49.184;9.722;2022-08-19T14:53:55;11.70;;;9.02;;
8187;SDS011;4135;49.184;9.722;2022-08-19T14:56:26;15.32;;;11.40;;
8187;SDS011;4135;49.184;9.722;2022-08-19T14:58:57;18.35;;;11.20;;
8187;SDS011;4135;49.184;9.722;2022-08-19T15:01:29;11.27;;;9.10;;
8187;SDS011;4135;49.184;9.722;2022-08-19T15:03:59;14.70;;;9.40;;
8187;SDS011;4135;49.184;9.722;2022-08-19T15:06:28;15.63;;;9.43;;
8187;SDS011;4135;49.184;9.722;2022-08-19T15:08:58;13.80;;;9.52;;
8187;SDS011;4135;49.184;9.722;2022-08-19T15:11:29;13.57;;;8.75;;
8187;SDS011;4135;49.184;9.722;2022-08-19T15:14:01;12.57;;;9.80;;
8187;SDS011;4135;49.184;9.722;2022-08-19T15:16:30;13.43;;;10.23;;
8187;SDS011;4135;49.184;9.722;2022-08-19T15:19:01;15.70;;;9.35;;